Armstrong, Texas
Current Conditions -  °F | °C
As of 10:55 PM on Saturday 25 Oct 2014 (Local Time) from KBKS Reporting Station
Clear Clear  
Wind Chill: 18°   Ceiling: Unl
Heat Index: 18°   Visibility: 10mi
Dew Point: 16°   Wind: 3mph
Humidity: 85%   Direction: 110°ESE
Pressure: 30.11"   Gusts: NA
Location:  26.92°N, 97.79°W
Report Text: KBKS 260355Z AUTO 11003KT 10SM CLR 18/16 A3011 RMK AO1 T01800155
Loading
Personal Weather Stations






























Interactive Weather Map
Tropical Storm Tracking
New forecast layout! Learn more

10-Day Weather Forecast

Advertisements
Track Severe Weather on mobile